Time;durP1;ratioP1;P1;durP2;ratioP2;P2;SDS_P1;SDS_P2;PMS_P1;PMS_P2;Temp;Humidity;BMP_temperature;BMP_pressure;BME280_temperature;BME280_humidity;BME280_pressure;Samples;Min_cycle;Max_cycle;Signal;HPM_P1;HPM_P2
2020/12/26 00:01:44;;;;;;;15.45;10.38;;;-2.70;98.00;;;;;;5018454;28;20045;-65
2020/12/26 00:04:10;;;;;;;13.40;9.82;;;-2.70;98.00;;;;;;5027149;28;20026;-66
2020/12/26 00:06:35;;;;;;;15.35;9.82;;;-2.70;98.00;;;;;;5025022;28;20410;-65
2020/12/26 00:09:01;;;;;;;12.98;9.15;;;-2.70;98.00;;;;;;5032387;28;20417;-65
2020/12/26 00:11:26;;;;;;;19.58;11.63;;;-2.70;98.00;;;;;;5018936;28;20395;-65
2020/12/26 00:13:52;;;;;;;22.02;12.25;;;-2.80;98.00;;;;;;5026825;28;20065;-65
2020/12/26 00:16:19;;;;;;;17.88;9.63;;;-2.80;98.00;;;;;;5018142;28;20572;-66
2020/12/26 00:18:45;;;;;;;12.32;7.90;;;-2.80;98.00;;;;;;5029204;28;20686;-65
2020/12/26 00:21:13;;;;;;;12.85;8.20;;;-2.80;98.00;;;;;;5022937;28;20032;-66
2020/12/26 00:23:40;;;;;;;14.13;8.40;;;-2.80;98.00;;;;;;5022044;28;20038;-65
2020/12/26 00:26:05;;;;;;;14.48;8.77;;;-2.90;98.00;;;;;;5024444;28;20112;-66
2020/12/26 00:28:31;;;;;;;17.13;10.05;;;-2.80;98.00;;;;;;5019924;28;20112;-66
2020/12/26 00:30:58;;;;;;;31.20;12.88;;;-2.90;98.00;;;;;;5029115;28;20105;-66
2020/12/26 00:33:24;;;;;;;16.13;9.20;;;-3.00;98.00;;;;;;5022752;28;20038;-66
2020/12/26 00:35:49;;;;;;;19.13;9.93;;;-3.10;98.00;;;;;;5022496;28;20033;-66
2020/12/26 00:38:15;;;;;;;13.00;8.38;;;-3.10;98.00;;;;;;5028554;28;20029;-66
2020/12/26 00:40:42;;;;;;;13.82;8.23;;;-3.10;98.00;;;;;;5028925;28;20037;-66
2020/12/26 00:43:08;;;;;;;14.13;9.13;;;-3.00;98.00;;;;;;5020801;28;20061;-65
2020/12/26 00:45:34;;;;;;;15.75;8.80;;;-3.10;98.00;;;;;;5024733;28;20065;-66
2020/12/26 00:47:59;;;;;;;12.73;7.78;;;-3.10;98.00;;;;;;5024481;28;20037;-66
2020/12/26 00:50:25;;;;;;;12.25;7.65;;;-3.10;98.00;;;;;;5030963;28;20049;-66
2020/12/26 00:52:51;;;;;;;16.90;9.52;;;-3.20;98.00;;;;;;5029462;28;20033;-66
2020/12/26 00:55:17;;;;;;;16.52;9.30;;;-3.20;98.00;;;;;;5024318;28;20076;-65
2020/12/26 00:57:42;;;;;;;11.73;8.30;;;-3.10;98.00;;;;;;5021407;28;20378;-65
2020/12/26 01:00:10;;;;;;;13.07;8.40;;;-3.00;98.00;;;;;;5024792;28;20036;-66
2020/12/26 01:02:36;;;;;;;12.73;8.98;;;-3.00;98.00;;;;;;5028287;28;20045;-66
2020/12/26 01:05:03;;;;;;;14.40;9.45;;;-3.00;98.00;;;;;;5022888;28;20362;-66
2020/12/26 01:07:29;;;;;;;12.90;8.73;;;-3.00;98.00;;;;;;5023115;28;20088;-65
2020/12/26 01:09:55;;;;;;;17.40;10.02;;;-3.10;98.00;;;;;;5028673;28;20025;-66
2020/12/26 01:12:21;;;;;;;19.73;9.18;;;-3.20;98.00;;;;;;5030605;28;20025;-66
2020/12/26 01:14:46;;;;;;;15.25;8.73;;;-3.20;98.00;;;;;;5030961;28;20586;-65
2020/12/26 01:17:14;;;;;;;13.00;8.50;;;-3.10;98.00;;;;;;5037255;28;20029;-66
2020/12/26 01:19:40;;;;;;;13.95;9.18;;;-3.00;98.00;;;;;;5019030;28;20105;-66
2020/12/26 01:22:05;;;;;;;18.33;9.77;;;-3.10;98.00;;;;;;5023754;28;20113;-66
2020/12/26 01:24:31;;;;;;;14.10;8.63;;;-3.20;98.00;;;;;;5020191;28;20025;-66
2020/12/26 01:26:57;;;;;;;12.18;8.27;;;-3.10;98.00;;;;;;5024647;28;20050;-65
2020/12/26 01:29:22;;;;;;;10.50;7.30;;;-2.90;98.00;;;;;;5030980;28;20029;-65
2020/12/26 01:31:49;;;;;;;15.18;9.40;;;-2.90;98.00;;;;;;5031084;28;20041;-65
2020/12/26 01:34:15;;;;;;;14.40;9.27;;;-2.80;98.00;;;;;;5032040;28;20030;-66
2020/12/26 01:36:41;;;;;;;15.75;9.32;;;-2.80;98.00;;;;;;5031795;28;20029;-66
2020/12/26 01:39:07;;;;;;;13.45;8.32;;;-2.80;98.00;;;;;;5030739;28;20033;-65
2020/12/26 01:41:33;;;;;;;11.80;7.13;;;-2.80;98.00;;;;;;5026692;28;20320;-65
2020/12/26 01:44:02;;;;;;;15.43;8.75;;;-2.80;98.00;;;;;;5024335;28;20030;-66
2020/12/26 01:46:31;;;;;;;11.70;8.02;;;-2.80;98.00;;;;;;5032624;28;20025;-65
2020/12/26 01:48:59;;;;;;;17.85;9.23;;;-2.70;98.00;;;;;;5033139;28;20021;-65
2020/12/26 01:51:29;;;;;;;13.20;9.18;;;-2.70;98.00;;;;;;5026536;28;20069;-65
2020/12/26 01:53:55;;;;;;;12.65;8.07;;;-2.80;98.00;;;;;;5024020;28;20423;-65
2020/12/26 01:56:22;;;;;;;16.17;8.90;;;-2.80;98.00;;;;;;5030697;28;20033;-65
2020/12/26 01:58:48;;;;;;;21.25;9.50;;;-2.70;98.00;;;;;;5028151;28;20433;-66
2020/12/26 02:01:13;;;;;;;11.52;7.90;;;-2.70;98.00;;;;;;5030407;28;20025;-65
2020/12/26 02:03:42;;;;;;;13.27;8.40;;;-2.90;98.00;;;;;;5028170;28;20037;-65
2020/12/26 02:06:10;;;;;;;17.50;10.32;;;-2.90;98.00;;;;;;5028194;28;20029;-65
2020/12/26 02:08:36;;;;;;;11.90;7.63;;;-3.00;98.00;;;;;;5017570;28;20345;-66
2020/12/26 02:11:06;;;;;;;12.30;7.80;;;-3.00;98.00;;;;;;5025689;28;20029;-65
2020/12/26 02:13:34;;;;;;;12.82;7.78;;;-3.00;98.00;;;;;;5025231;28;20036;-65
2020/12/26 02:16:13;;;;;;;13.32;8.63;;;-3.10;98.00;;;;;;5020820;28;20025;-65
2020/12/26 02:18:40;;;;;;;14.18;9.32;;;-3.20;98.00;;;;;;5017062;28;20026;-65
2020/12/26 02:21:06;;;;;;;11.63;7.85;;;-3.30;98.00;;;;;;5025950;28;20026;-65
2020/12/26 02:23:42;;;;;;;14.57;9.07;;;-3.30;98.00;;;;;;5025204;28;20033;-65
2020/12/26 02:26:08;;;;;;;13.50;7.72;;;-3.30;98.00;;;;;;5027255;28;20333;-66
2020/12/26 02:28:35;;;;;;;12.55;8.55;;;-3.30;98.00;;;;;;5023958;28;20033;-65
2020/12/26 02:31:01;;;;;;;13.60;8.30;;;-3.30;98.00;;;;;;5025834;28;20112;-65
2020/12/26 02:33:26;;;;;;;13.70;8.73;;;-3.30;98.00;;;;;;5035201;28;20105;-67
2020/12/26 02:35:52;;;;;;;15.50;8.68;;;-3.40;98.00;;;;;;5034231;28;20041;-68
2020/12/26 02:38:19;;;;;;;23.88;13.25;;;-3.40;98.00;;;;;;5031756;28;20036;-67
2020/12/26 02:40:48;;;;;;;19.00;11.02;;;-3.30;98.00;;;;;;5034425;28;20407;-67
2020/12/26 02:43:26;;;;;;;15.48;9.45;;;-3.30;98.00;;;;;;5031850;28;20117;-67
2020/12/26 02:45:53;;;;;;;12.77;7.82;;;-3.30;98.00;;;;;;5027242;28;20064;-66
2020/12/26 02:48:19;;;;;;;15.88;8.00;;;-3.30;98.00;;;;;;5035639;28;20061;-68
2020/12/26 02:50:45;;;;;;;12.80;8.15;;;-3.20;98.00;;;;;;5033173;28;20465;-67
2020/12/26 02:53:10;;;;;;;14.27;8.60;;;-3.20;98.00;;;;;;5036214;28;20053;-66
2020/12/26 02:55:36;;;;;;;14.38;9.23;;;-3.20;98.00;;;;;;5022532;28;20057;-67
2020/12/26 02:58:02;;;;;;;15.30;9.23;;;-3.10;98.00;;;;;;5034224;28;20418;-66
2020/12/26 03:00:28;;;;;;;14.75;8.48;;;-3.10;98.00;;;;;;5025558;28;20122;-66
2020/12/26 03:02:54;;;;;;;19.80;10.32;;;-3.10;98.00;;;;;;5030184;28;20097;-67
2020/12/26 03:05:19;;;;;;;19.48;11.38;;;-3.10;98.00;;;;;;5016066;28;20036;-67
2020/12/26 03:07:45;;;;;;;22.42;12.63;;;-3.00;98.00;;;;;;5015763;28;20407;-67
2020/12/26 03:10:11;;;;;;;17.23;10.23;;;-3.00;98.00;;;;;;5015833;28;20026;-66
2020/12/26 03:12:36;;;;;;;12.38;8.55;;;-2.90;98.00;;;;;;5028912;28;20156;-66
2020/12/26 03:15:03;;;;;;;16.70;9.70;;;-2.80;98.00;;;;;;5026674;28;20049;-68
2020/12/26 03:17:32;;;;;;;18.38;12.02;;;-2.70;98.00;;;;;;5028690;28;20406;-66
2020/12/26 03:19:58;;;;;;;27.67;14.43;;;-2.60;98.00;;;;;;5034266;28;20438;-66
2020/12/26 03:22:27;;;;;;;24.92;12.50;;;-2.40;98.00;;;;;;5032275;28;20029;-67
2020/12/26 03:24:54;;;;;;;20.95;11.80;;;-2.30;98.00;;;;;;5022976;28;20029;-68
2020/12/26 03:27:21;;;;;;;14.40;9.13;;;-2.30;98.00;;;;;;5031171;28;20430;-65
2020/12/26 03:29:47;;;;;;;15.70;9.80;;;-2.50;98.00;;;;;;5035810;28;20029;-67
2020/12/26 03:32:13;;;;;;;14.73;9.93;;;-2.60;98.00;;;;;;5024884;28;20038;-67
2020/12/26 03:34:39;;;;;;;18.13;10.38;;;-2.60;98.00;;;;;;5019677;28;20041;-66
2020/12/26 03:37:05;;;;;;;17.58;8.98;;;-2.60;98.00;;;;;;5017398;28;20038;-68
2020/12/26 03:39:35;;;;;;;13.48;9.68;;;-2.60;98.00;;;;;;5031493;28;20374;-68
2020/12/26 03:42:05;;;;;;;17.15;12.13;;;-2.60;98.00;;;;;;5030722;28;20028;-67
2020/12/26 03:44:31;;;;;;;20.95;11.52;;;-2.50;98.00;;;;;;5021580;28;20037;-67
2020/12/26 03:46:57;;;;;;;20.90;12.45;;;-2.40;98.00;;;;;;5045299;28;20025;-65
2020/12/26 03:49:23;;;;;;;15.70;8.65;;;-2.30;98.00;;;;;;5027989;28;20041;-66
2020/12/26 03:51:49;;;;;;;17.20;11.70;;;-2.50;98.00;;;;;;5016224;28;20046;-66
2020/12/26 03:54:18;;;;;;;22.00;12.38;;;-2.40;98.00;;;;;;5022595;28;20038;-68
2020/12/26 03:56:44;;;;;;;13.57;9.18;;;-2.30;98.00;;;;;;5015402;28;20034;-66
2020/12/26 03:59:10;;;;;;;14.25;9.13;;;-2.20;98.00;;;;;;5027372;28;20326;-67
2020/12/26 04:01:36;;;;;;;18.20;9.73;;;-2.30;98.00;;;;;;5029027;28;20358;-67
2020/12/26 04:04:02;;;;;;;20.25;10.63;;;-2.30;98.00;;;;;;5027426;28;20032;-67
2020/12/26 04:06:28;;;;;;;19.05;10.77;;;-2.10;98.00;;;;;;5016204;28;20024;-67
2020/12/26 04:08:53;;;;;;;19.77;12.38;;;-2.10;98.00;;;;;;5017369;28;20381;-68
2020/12/26 04:11:19;;;;;;;24.05;13.32;;;-2.10;98.00;;;;;;5030901;28;20044;-67
2020/12/26 04:13:48;;;;;;;19.67;12.68;;;-2.10;98.00;;;;;;5030008;28;20110;-68
2020/12/26 04:16:13;;;;;;;20.83;12.25;;;-2.00;98.00;;;;;;5016152;28;20033;-66
2020/12/26 04:18:39;;;;;;;24.25;13.18;;;-2.00;98.00;;;;;;5035035;28;20030;-68
2020/12/26 04:21:06;;;;;;;19.17;13.23;;;-2.00;98.00;;;;;;5027316;28;20060;-67
2020/12/26 04:23:33;;;;;;;24.05;15.70;;;-1.90;98.00;;;;;;5031834;28;20041;-67
2020/12/26 04:25:58;;;;;;;20.38;13.07;;;-1.90;98.00;;;;;;5024709;28;20022;-66
2020/12/26 04:28:25;;;;;;;25.77;13.77;;;-1.80;98.00;;;;;;5022017;28;20032;-66
2020/12/26 04:30:50;;;;;;;19.05;12.38;;;-1.80;98.00;;;;;;5030369;28;20033;-66
2020/12/26 04:33:16;;;;;;;21.50;13.27;;;-1.80;98.00;;;;;;5034215;28;20488;-66
2020/12/26 04:35:42;;;;;;;20.45;12.35;;;-1.90;98.00;;;;;;5021456;28;20034;-66
2020/12/26 04:38:10;;;;;;;19.40;11.30;;;-1.80;98.00;;;;;;5023652;28;20034;-66
2020/12/26 04:40:36;;;;;;;21.50;13.27;;;-1.70;98.00;;;;;;5032304;28;20025;-66
2020/12/26 04:43:02;;;;;;;22.65;13.00;;;-1.70;98.00;;;;;;5032966;28;20025;-68
2020/12/26 04:45:29;;;;;;;20.08;12.75;;;-1.70;98.00;;;;;;5030112;28;20029;-68
2020/12/26 04:48:06;;;;;;;21.67;12.38;;;-1.70;98.00;;;;;;5029452;28;20032;-68
2020/12/26 04:50:34;;;;;;;19.05;11.90;;;-1.70;98.00;;;;;;5027002;28;20041;-68
2020/12/26 04:53:04;;;;;;;18.08;12.50;;;-1.60;98.00;;;;;;5034960;28;20044;-67
2020/12/26 04:55:34;;;;;;;20.13;12.23;;;-1.70;98.00;;;;;;5016372;28;20048;-67
2020/12/26 04:58:10;;;;;;;19.40;11.15;;;-1.70;98.00;;;;;;5034665;28;20079;-67
2020/12/26 05:00:37;;;;;;;17.90;11.93;;;-1.90;98.00;;;;;;5030077;28;20049;-68
2020/12/26 05:03:05;;;;;;;19.48;12.65;;;-2.10;98.00;;;;;;5034519;28;20338;-68
2020/12/26 05:05:34;;;;;;;23.00;14.38;;;-2.10;98.00;;;;;;5024135;28;20022;-68
2020/12/26 05:08:07;;;;;;;22.45;13.15;;;-2.10;98.00;;;;;;5026780;28;20025;-68
2020/12/26 05:10:33;;;;;;;18.98;11.35;;;-2.00;98.00;;;;;;5025754;28;20026;-67
2020/12/26 05:12:59;;;;;;;21.55;12.25;;;-1.90;98.00;;;;;;5026152;28;20021;-67
2020/12/26 05:15:26;;;;;;;21.85;12.02;;;-1.80;98.00;;;;;;5015407;28;20025;-68
2020/12/26 05:17:51;;;;;;;19.40;11.18;;;-1.80;98.00;;;;;;5023427;28;20029;-68
2020/12/26 05:20:18;;;;;;;21.17;12.50;;;-1.80;98.00;;;;;;5028580;28;20021;-67
2020/12/26 05:22:43;;;;;;;27.13;13.65;;;-1.80;98.00;;;;;;5028606;28;20034;-67
2020/12/26 05:25:10;;;;;;;22.30;14.07;;;-1.80;98.00;;;;;;5019750;28;20029;-67
2020/12/26 05:27:36;;;;;;;23.25;14.35;;;-1.80;98.00;;;;;;5033986;28;20079;-68
2020/12/26 05:30:06;;;;;;;21.55;12.95;;;-1.90;98.00;;;;;;5033236;28;20030;-67
2020/12/26 05:32:32;;;;;;;19.65;13.05;;;-2.00;98.00;;;;;;5030651;28;20025;-68
2020/12/26 05:35:06;;;;;;;24.80;14.38;;;-1.90;98.00;;;;;;5025387;28;20056;-66
2020/12/26 05:37:31;;;;;;;21.73;13.48;;;-1.90;98.00;;;;;;5027279;28;20358;-67
2020/12/26 05:40:01;;;;;;;24.23;13.73;;;-1.90;98.00;;;;;;5037158;28;20037;-68
2020/12/26 05:42:28;;;;;;;19.73;12.85;;;-1.90;98.00;;;;;;5034786;28;20079;-67
2020/12/26 05:45:09;;;;;;;19.70;11.35;;;-1.90;98.00;;;;;;5032874;28;20032;-67
2020/12/26 05:47:36;;;;;;;19.13;12.68;;;-2.00;98.00;;;;;;5037243;28;20021;-68
2020/12/26 05:50:08;;;;;;;25.88;14.07;;;-2.00;98.00;;;;;;5037554;28;20036;-67
2020/12/26 05:52:34;;;;;;;19.65;12.70;;;-2.00;98.00;;;;;;5036502;28;20037;-68
2020/12/26 05:55:13;;;;;;;23.63;15.35;;;-2.00;98.00;;;;;;5028264;28;20084;-68
2020/12/26 05:57:40;;;;;;;22.40;13.25;;;-2.00;98.00;;;;;;5030022;28;20099;-68
2020/12/26 06:00:08;;;;;;;21.02;12.82;;;-1.90;98.00;;;;;;5037990;28;20499;-68
2020/12/26 06:02:36;;;;;;;21.35;11.48;;;-1.80;98.00;;;;;;5021216;28;20343;-67
2020/12/26 06:05:05;;;;;;;19.17;11.32;;;-1.80;98.00;;;;;;5027518;28;20091;-68
2020/12/26 06:07:37;;;;;;;16.75;9.63;;;-1.80;98.00;;;;;;5028945;28;20060;-68
2020/12/26 06:10:09;;;;;;;16.17;10.60;;;-1.90;98.00;;;;;;5028224;28;20052;-68
2020/12/26 06:12:36;;;;;;;17.38;11.32;;;-1.90;98.00;;;;;;5029019;28;20038;-68
2020/12/26 06:15:04;;;;;;;24.08;12.30;;;-2.10;98.00;;;;;;5025830;28;20033;-69
2020/12/26 06:17:31;;;;;;;18.92;12.18;;;-2.20;98.00;;;;;;5036433;28;20051;-68
2020/12/26 06:20:06;;;;;;;22.27;13.70;;;-2.30;98.00;;;;;;5037674;28;20060;-66
2020/12/26 06:22:43;;;;;;;20.75;12.48;;;-2.40;98.00;;;;;;5020947;28;20040;-68
2020/12/26 06:25:14;;;;;;;23.80;12.75;;;-2.40;98.00;;;;;;5027436;28;20021;-67
2020/12/26 06:28:14;;;;;;;18.08;11.07;;;-2.50;98.00;;;;;;5032393;28;20025;-67
2020/12/26 06:30:40;;;;;;;22.48;13.13;;;-2.50;98.00;;;;;;5022163;28;20072;-66
2020/12/26 06:33:07;;;;;;;20.88;12.15;;;-2.60;98.00;;;;;;5025729;28;20037;-67
2020/12/26 06:35:33;;;;;;;15.30;10.88;;;-2.50;98.00;;;;;;5034690;28;20037;-67
2020/12/26 06:38:23;;;;;;;17.30;11.93;;;-2.30;98.00;;;;;;5036671;28;20091;-67
2020/12/26 06:40:51;;;;;;;17.65;10.35;;;-2.50;98.00;;;;;;5035374;28;20044;-68
2020/12/26 06:43:42;;;;;;;17.33;10.30;;;-2.60;98.00;;;;;;5021328;28;20501;-68
2020/12/26 06:46:17;;;;;;;19.02;12.35;;;-2.60;98.00;;;;;;5021478;28;20050;-66
2020/12/26 06:48:44;;;;;;;18.45;10.27;;;-2.60;98.00;;;;;;5035927;28;20372;-67
2020/12/26 06:51:22;;;;;;;20.35;9.23;;;-2.70;98.00;;;;;;5021101;28;20054;-67
2020/12/26 06:53:48;;;;;;;27.67;17.35;;;-2.80;98.00;;;;;;5019633;28;20354;-68
2020/12/26 06:56:36;;;;;;;24.92;16.15;;;-2.80;98.00;;;;;;5028212;28;20029;-68
2020/12/26 06:59:15;;;;;;;25.05;14.95;;;-2.80;98.00;;;;;;5035024;28;20026;-67
2020/12/26 07:01:42;;;;;;;39.10;23.25;;;-2.70;98.00;;;;;;5033053;28;20033;-66
2020/12/26 07:04:10;;;;;;;29.17;20.67;;;-2.60;98.00;;;;;;5022765;28;20021;-68
2020/12/26 07:06:59;;;;;;;21.77;14.95;;;-2.40;98.00;;;;;;5031523;28;20026;-67
2020/12/26 07:09:41;;;;;;;21.15;16.15;;;-2.30;98.00;;;;;;5029788;28;20025;-67
2020/12/26 07:12:08;;;;;;;20.13;12.35;;;-2.20;98.00;;;;;;5025375;28;20069;-67
2020/12/26 07:14:35;;;;;;;19.48;12.60;;;-2.30;98.00;;;;;;5022426;28;20033;-68
2020/12/26 07:17:05;;;;;;;18.00;13.15;;;-2.30;98.00;;;;;;5034060;28;20056;-66
2020/12/26 07:19:46;;;;;;;18.23;10.15;;;-2.30;98.00;;;;;;5021124;28;20108;-68
2020/12/26 07:22:30;;;;;;;15.50;9.32;;;-2.20;98.00;;;;;;5030846;28;20045;-67
2020/12/26 07:25:09;;;;;;;18.92;10.38;;;-2.20;98.00;;;;;;5035000;28;20018;-66
2020/12/26 07:27:39;;;;;;;12.02;9.18;;;-2.20;98.00;;;;;;5017422;28;20088;-66
2020/12/26 07:30:11;;;;;;;18.73;10.50;;;-2.00;98.00;;;;;;5017163;28;20335;-67
2020/12/26 07:32:37;;;;;;;16.40;9.32;;;-1.90;98.00;;;;;;5034390;28;20113;-66
2020/12/26 07:35:07;;;;;;;17.27;10.85;;;-1.80;98.00;;;;;;5024272;28;20397;-66
2020/12/26 07:37:33;;;;;;;14.35;9.60;;;-1.70;98.00;;;;;;5029966;28;20043;-68
2020/12/26 07:39:59;;;;;;;17.20;10.45;;;-1.80;98.00;;;;;;5031664;28;20025;-69
2020/12/26 07:42:25;;;;;;;14.68;9.02;;;-1.80;98.00;;;;;;5034575;28;20421;-68
2020/12/26 07:44:51;;;;;;;16.63;9.43;;;-1.70;98.00;;;;;;5016608;28;20030;-68
2020/12/26 07:47:20;;;;;;;14.00;8.65;;;-1.60;98.00;;;;;;5027558;28;20096;-68
2020/12/26 07:49:59;;;;;;;15.23;9.73;;;-1.50;98.00;;;;;;5045242;28;20021;-68
2020/12/26 07:52:25;;;;;;;20.63;11.85;;;-1.40;98.00;;;;;;5023392;28;20041;-67
2020/12/26 07:54:58;;;;;;;14.57;9.15;;;-1.30;98.00;;;;;;5016384;28;20052;-68
2020/12/26 07:57:29;;;;;;;20.60;11.27;;;-1.20;98.00;;;;;;5016998;28;20040;-69
2020/12/26 07:59:55;;;;;;;17.67;10.10;;;-1.20;98.00;;;;;;5015731;28;20034;-68
2020/12/26 08:02:20;;;;;;;13.95;8.73;;;-1.20;98.00;;;;;;5016447;28;20104;-67
2020/12/26 08:04:50;;;;;;;15.68;8.93;;;-1.10;98.00;;;;;;5016220;28;20514;-68
2020/12/26 08:07:17;;;;;;;12.25;7.82;;;-1.00;98.00;;;;;;5027105;28;20025;-68
2020/12/26 08:09:53;;;;;;;16.67;8.23;;;-0.90;98.00;;;;;;5031541;28;20489;-68
2020/12/26 08:12:19;;;;;;;16.02;8.00;;;-0.90;98.00;;;;;;5025708;28;20335;-69
2020/12/26 08:14:55;;;;;;;16.20;11.15;;;-0.90;98.00;;;;;;5019846;28;20025;-67
2020/12/26 08:17:23;;;;;;;18.80;11.60;;;-0.90;98.00;;;;;;5032318;28;20427;-67
2020/12/26 08:19:55;;;;;;;16.70;9.15;;;-0.90;98.00;;;;;;5032725;28;20029;-67
2020/12/26 08:22:22;;;;;;;12.68;9.15;;;-1.00;98.00;;;;;;5028702;28;20106;-67
2020/12/26 08:24:47;;;;;;;13.90;7.80;;;-1.00;98.00;;;;;;5030746;28;20036;-67
2020/12/26 08:27:14;;;;;;;12.85;7.68;;;-0.90;98.00;;;;;;5022185;28;20346;-68
2020/12/26 08:29:40;;;;;;;12.70;7.78;;;-0.90;98.00;;;;;;5035242;28;20307;-68
2020/12/26 08:32:09;;;;;;;14.57;8.93;;;-0.80;98.00;;;;;;5020643;28;20160;-68
2020/12/26 08:34:49;;;;;;;13.23;8.95;;;-0.70;98.00;;;;;;5019406;28;20025;-68
2020/12/26 08:37:39;;;;;;;13.50;8.75;;;-0.70;98.00;;;;;;5031660;28;20322;-67
2020/12/26 08:40:09;;;;;;;13.07;8.75;;;-0.60;98.00;;;;;;5016761;28;20022;-68
2020/12/26 08:42:37;;;;;;;12.13;7.78;;;-0.40;98.00;;;;;;5021548;28;20368;-67
2020/12/26 08:45:27;;;;;;;12.15;7.00;;;-0.30;98.00;;;;;;5019681;28;20017;-69
2020/12/26 08:47:53;;;;;;;8.48;6.00;;;-0.20;98.00;;;;;;5026025;28;20048;-67
2020/12/26 08:50:21;;;;;;;12.48;7.40;;;-0.30;98.00;;;;;;5017522;28;20038;-68
2020/12/26 08:52:49;;;;;;;11.02;6.78;;;-0.50;98.00;;;;;;5019953;28;20165;-68
2020/12/26 08:55:14;;;;;;;11.30;6.43;;;-0.60;98.00;;;;;;5022722;28;20491;-68
2020/12/26 08:57:40;;;;;;;32.15;18.75;;;-0.40;98.00;;;;;;5034998;28;20029;-68
2020/12/26 09:00:22;;;;;;;11.60;7.50;;;-0.40;98.00;;;;;;5020984;28;20030;-67
2020/12/26 09:02:49;;;;;;;9.45;6.10;;;-0.10;98.00;;;;;;5020735;28;20512;-68
2020/12/26 09:05:45;;;;;;;10.52;6.07;;;0.40;98.00;;;;;;5027294;28;20026;-67
2020/12/26 09:08:10;;;;;;;13.35;7.95;;;1.00;97.10;;;;;;5026804;28;20033;-67
2020/12/26 09:10:38;;;;;;;9.82;5.40;;;1.50;96.00;;;;;;5034359;28;20100;-67
2020/12/26 09:13:13;;;;;;;11.05;5.75;;;1.80;93.30;;;;;;5028612;28;20114;-67
2020/12/26 09:16:02;;;;;;;7.07;4.72;;;2.20;91.50;;;;;;5027769;28;20025;-68
2020/12/26 09:18:33;;;;;;;8.85;5.40;;;2.70;90.50;;;;;;5027757;28;20318;-69
2020/12/26 09:21:02;;;;;;;11.18;6.40;;;3.20;89.10;;;;;;5036820;28;20033;-68
2020/12/26 09:23:34;;;;;;;7.50;5.05;;;3.30;87.30;;;;;;5029804;28;20029;-67
2020/12/26 09:26:22;;;;;;;7.57;4.55;;;3.20;87.60;;;;;;5025929;28;20017;-68
2020/12/26 09:28:57;;;;;;;14.52;5.95;;;2.40;88.50;;;;;;5025701;28;20036;-68
2020/12/26 09:31:25;;;;;;;8.52;5.65;;;1.90;90.60;;;;;;5026063;28;20053;-68
2020/12/26 09:33:52;;;;;;;11.30;7.00;;;1.50;92.00;;;;;;5026734;28;20026;-66
2020/12/26 09:36:21;;;;;;;8.82;5.95;;;1.40;93.00;;;;;;5019874;28;20076;-68
2020/12/26 09:38:48;;;;;;;11.15;6.70;;;1.30;93.20;;;;;;5036829;28;20404;-69
2020/12/26 09:41:17;;;;;;;9.32;6.72;;;1.10;93.20;;;;;;5029540;28;20286;-69
2020/12/26 09:43:45;;;;;;;16.02;9.20;;;0.90;94.00;;;;;;5036545;28;20029;-68
2020/12/26 09:46:11;;;;;;;15.45;11.50;;;0.70;95.30;;;;;;5017804;28;20667;-68
2020/12/26 09:48:37;;;;;;;15.50;9.13;;;0.70;95.90;;;;;;5030871;28;20368;-68
2020/12/26 09:51:13;;;;;;;33.40;16.35;;;0.90;96.10;;;;;;5024222;28;20041;-68
2020/12/26 09:53:42;;;;;;;43.88;25.02;;;1.00;95.00;;;;;;5030392;28;20025;-67
2020/12/26 09:56:09;;;;;;;11.32;6.90;;;1.00;94.60;;;;;;5032728;28;20030;-67
2020/12/26 09:58:36;;;;;;;9.80;6.00;;;1.00;93.90;;;;;;5020317;28;20045;-68
2020/12/26 10:01:04;;;;;;;9.77;5.85;;;1.00;94.70;;;;;;5019293;28;20105;-68
2020/12/26 10:03:30;;;;;;;7.57;4.75;;;1.00;95.00;;;;;;5027498;28;20029;-68
2020/12/26 10:05:55;;;;;;;9.20;5.95;;;0.90;94.80;;;;;;5032865;28;20032;-67
2020/12/26 10:08:21;;;;;;;8.05;4.63;;;1.00;94.90;;;;;;5018760;28;20032;-68
2020/12/26 10:10:47;;;;;;;9.57;5.95;;;1.20;94.40;;;;;;5027517;28;20417;-68
2020/12/26 10:13:12;;;;;;;11.40;5.10;;;1.40;92.70;;;;;;5019233;28;20037;-68
2020/12/26 10:15:38;;;;;;;7.03;4.80;;;1.60;94.00;;;;;;5021721;28;20386;-67
2020/12/26 10:18:03;;;;;;;8.35;5.20;;;1.30;94.20;;;;;;5031800;28;20026;-67
2020/12/26 10:20:29;;;;;;;7.60;5.43;;;1.10;95.10;;;;;;5018626;28;20041;-68
2020/12/26 10:22:55;;;;;;;12.20;8.07;;;1.20;95.60;;;;;;5026735;28;20034;-66
2020/12/26 10:25:24;;;;;;;11.88;8.32;;;1.60;95.60;;;;;;5022287;28;20423;-66
2020/12/26 10:27:51;;;;;;;9.98;5.28;;;2.10;95.10;;;;;;5028002;28;20392;-67
2020/12/26 10:30:17;;;;;;;8.15;5.30;;;1.60;93.60;;;;;;5023078;28;20028;-67
2020/12/26 10:32:43;;;;;;;11.50;5.75;;;1.80;95.10;;;;;;5034848;28;20885;-68
2020/12/26 10:35:09;;;;;;;9.65;5.65;;;2.40;93.80;;;;;;5034121;28;20018;-68
2020/12/26 10:37:35;;;;;;;12.65;7.13;;;2.70;90.50;;;;;;5026557;28;20048;-68
2020/12/26 10:40:00;;;;;;;11.93;6.88;;;2.80;91.70;;;;;;5031432;28;20049;-68
2020/12/26 10:42:26;;;;;;;7.65;4.43;;;3.00;91.40;;;;;;5024814;28;20025;-69
2020/12/26 10:44:52;;;;;;;8.15;5.10;;;3.10;88.50;;;;;;5035250;28;20079;-69
2020/12/26 10:47:18;;;;;;;7.32;3.67;;;3.30;88.50;;;;;;5027242;28;20076;-68
2020/12/26 10:49:43;;;;;;;7.28;3.88;;;3.10;85.80;;;;;;5035947;28;20040;-67
2020/12/26 10:52:09;;;;;;;10.68;6.00;;;3.00;84.60;;;;;;5037101;28;20025;-68
2020/12/26 10:54:35;;;;;;;9.77;4.78;;;2.70;85.10;;;;;;5034027;28;20041;-68
2020/12/26 10:57:00;;;;;;;7.80;4.60;;;2.40;86.40;;;;;;5029606;28;20125;-68
2020/12/26 10:59:26;;;;;;;7.20;4.70;;;2.60;88.50;;;;;;5022975;28;20057;-67
2020/12/26 11:01:52;;;;;;;6.03;3.80;;;2.80;88.80;;;;;;5034564;28;20036;-68
2020/12/26 11:04:17;;;;;;;9.25;4.30;;;2.80;86.40;;;;;;5033508;28;20029;-68
2020/12/26 11:06:48;;;;;;;5.50;3.10;;;2.90;86.60;;;;;;5036716;28;20026;-68
2020/12/26 11:09:14;;;;;;;5.22;2.83;;;2.70;86.00;;;;;;5023651;28;20288;-68
2020/12/26 11:11:48;;;;;;;6.35;3.58;;;2.50;85.60;;;;;;5034064;28;20165;-68
2020/12/26 11:14:14;;;;;;;5.97;3.05;;;2.20;86.00;;;;;;5018171;28;20055;-68
2020/12/26 11:16:39;;;;;;;5.70;2.90;;;2.10;86.50;;;;;;5035893;28;20111;-67
2020/12/26 11:19:05;;;;;;;9.90;4.38;;;1.90;87.20;;;;;;5024319;28;20076;-67
2020/12/26 11:21:31;;;;;;;8.73;4.43;;;1.50;88.70;;;;;;5021040;28;20030;-66
2020/12/26 11:23:59;;;;;;;6.28;4.00;;;1.70;89.50;;;;;;5027590;28;20022;-68
2020/12/26 11:26:25;;;;;;;5.88;3.60;;;2.00;89.70;;;;;;5026851;28;20026;-68
2020/12/26 11:28:51;;;;;;;8.90;3.67;;;2.00;89.20;;;;;;5018496;28;20334;-67
2020/12/26 11:31:24;;;;;;;6.68;3.75;;;2.10;88.40;;;;;;5032126;28;20061;-68
2020/12/26 11:33:50;;;;;;;11.03;3.40;;;2.10;88.10;;;;;;5029081;28;20060;-68
2020/12/26 11:36:24;;;;;;;6.95;3.78;;;2.50;87.70;;;;;;5029223;28;20038;-68
2020/12/26 11:38:51;;;;;;;9.20;3.60;;;2.60;87.50;;;;;;5019581;28;20752;-68
2020/12/26 11:41:21;;;;;;;10.57;3.50;;;2.80;86.50;;;;;;5016595;28;20073;-68
2020/12/26 11:43:46;;;;;;;11.15;3.50;;;3.20;85.70;;;;;;5025230;28;20033;-68
2020/12/26 11:46:13;;;;;;;7.85;3.75;;;3.40;84.00;;;;;;5032664;28;20030;-67
2020/12/26 11:48:39;;;;;;;7.43;3.53;;;3.40;82.40;;;;;;5025239;28;20030;-68
2020/12/26 11:51:07;;;;;;;6.00;3.60;;;3.70;83.70;;;;;;5034099;28;20447;-68
2020/12/26 11:53:33;;;;;;;7.90;4.03;;;4.20;82.90;;;;;;5023082;28;20034;-68
2020/12/26 11:55:59;;;;;;;6.25;3.53;;;4.90;81.70;;;;;;5021702;28;20480;-68
2020/12/26 11:58:25;;;;;;;9.23;3.90;;;5.80;78.50;;;;;;5027085;28;20033;-65
2020/12/26 12:00:55;;;;;;;5.75;3.38;;;6.10;76.10;;;;;;5027586;28;20295;-64
2020/12/26 12:03:22;;;;;;;8.98;5.10;;;5.60;76.90;;;;;;5020166;28;20040;-64
2020/12/26 12:05:48;;;;;;;10.25;3.47;;;5.30;78.10;;;;;;5024374;28;20025;-65
2020/12/26 12:08:14;;;;;;;5.05;3.42;;;5.40;77.10;;;;;;5028642;28;20288;-65
2020/12/26 12:10:41;;;;;;;9.68;3.92;;;5.50;77.80;;;;;;5025616;28;20428;-65
2020/12/26 12:13:07;;;;;;;6.50;3.40;;;5.10;78.80;;;;;;5029050;28;20021;-65
2020/12/26 12:15:34;;;;;;;7.00;3.50;;;4.10;78.50;;;;;;5026922;28;20036;-65
2020/12/26 12:18:01;;;;;;;7.75;4.38;;;3.20;82.60;;;;;;5022053;28;20021;-65
2020/12/26 12:20:30;;;;;;;6.25;4.30;;;2.40;85.20;;;;;;5024001;28;20037;-66
2020/12/26 12:22:57;;;;;;;7.93;4.13;;;2.30;86.50;;;;;;5024525;28;20030;-65
2020/12/26 12:25:24;;;;;;;8.57;4.80;;;2.20;87.30;;;;;;5026230;28;20018;-64
2020/12/26 12:27:50;;;;;;;8.65;5.32;;;2.00;87.90;;;;;;5031052;28;20032;-65
2020/12/26 12:30:17;;;;;;;8.43;4.97;;;2.20;88.70;;;;;;5032009;28;20068;-65
2020/12/26 12:32:43;;;;;;;9.38;4.93;;;2.50;87.80;;;;;;5028648;28;20025;-65
2020/12/26 12:35:10;;;;;;;14.52;8.70;;;3.20;87.60;;;;;;5020616;28;20055;-65
2020/12/26 12:37:36;;;;;;;14.60;8.10;;;3.60;83.80;;;;;;5024825;28;20025;-64
2020/12/26 12:40:06;;;;;;;8.15;4.35;;;4.10;83.30;;;;;;5025498;28;20026;-65
2020/12/26 12:42:32;;;;;;;12.43;6.50;;;4.90;82.90;;;;;;5033357;28;20072;-65
2020/12/26 12:44:59;;;;;;;12.95;8.00;;;5.20;81.00;;;;;;5021516;28;20049;-64